createdAt,value
2019-06-20T00:00:51.704Z,3.20
2019-06-20T00:03:21.789Z,3.57
2019-06-20T00:05:54.480Z,3.60
2019-06-20T00:08:24.737Z,3.50
2019-06-20T00:10:55.018Z,3.33
2019-06-20T00:13:25.344Z,3.70
2019-06-20T00:15:55.594Z,3.47
2019-06-20T00:18:26.207Z,3.50
2019-06-20T00:20:56.596Z,3.70
2019-06-20T00:23:27.822Z,3.40
2019-06-20T00:25:58.200Z,3.67
2019-06-20T00:28:29.659Z,3.60
2019-06-20T00:30:59.952Z,3.50
2019-06-20T00:33:30.680Z,3.90
2019-06-20T00:36:00.915Z,3.70
2019-06-20T00:38:31.254Z,3.50
2019-06-20T00:41:01.508Z,3.50
2019-06-20T00:43:31.835Z,3.57
2019-06-20T00:46:02.060Z,3.30
2019-06-20T00:48:39.443Z,3.60
2019-06-20T00:51:09.694Z,3.50
2019-06-20T00:53:39.905Z,3.43
2019-06-20T00:56:10.213Z,4.00
2019-06-20T00:58:40.557Z,3.80
2019-06-20T01:01:19.207Z,3.70
2019-06-20T01:03:49.430Z,3.40
2019-06-20T01:06:19.738Z,3.90
2019-06-20T01:08:49.998Z,3.93
2019-06-20T01:11:20.261Z,3.43
2019-06-20T01:13:52.859Z,4.17
2019-06-20T01:16:23.096Z,3.73
2019-06-20T01:18:53.597Z,3.87
2019-06-20T01:21:24.073Z,3.70
2019-06-20T01:23:54.425Z,3.93
2019-06-20T01:26:24.655Z,3.80
2019-06-20T01:28:55.254Z,3.80
2019-06-20T01:31:25.660Z,3.70
2019-06-20T01:33:55.979Z,3.73
2019-06-20T01:36:26.248Z,4.50
2019-06-20T01:38:56.514Z,4.07
2019-06-20T01:41:27.322Z,3.47
2019-06-20T01:43:57.695Z,3.90
2019-06-20T01:46:28.017Z,4.10
2019-06-20T01:48:58.483Z,3.23
2019-06-20T01:51:29.007Z,3.73
2019-06-20T01:53:59.415Z,3.83
2019-06-20T01:56:33.434Z,4.20
2019-06-20T01:59:03.706Z,4.10
2019-06-20T02:01:34.026Z,3.73
2019-06-20T02:04:04.266Z,4.07
2019-06-20T02:06:34.534Z,3.80
2019-06-20T02:09:11.931Z,4.13
2019-06-20T02:11:42.290Z,4.03
2019-06-20T02:14:12.567Z,4.27
2019-06-20T02:16:42.983Z,4.40
2019-06-20T02:19:13.295Z,4.20
2019-06-20T02:21:43.615Z,4.10
2019-06-20T02:24:17.945Z,3.80
2019-06-20T02:26:48.312Z,4.47
2019-06-20T02:29:18.717Z,4.13
2019-06-20T02:31:48.921Z,3.83
2019-06-20T02:34:19.259Z,4.17
2019-06-20T02:36:50.583Z,4.20
2019-06-20T02:39:21.003Z,3.87
2019-06-20T02:41:51.335Z,4.23
2019-06-20T02:44:30.044Z,4.00
2019-06-20T02:46:53.882Z,4.10
2019-06-20T02:49:24.143Z,4.00
2019-06-20T02:51:54.411Z,4.27
2019-06-20T02:54:25.106Z,4.20
2019-06-20T02:56:55.722Z,3.97
2019-06-20T02:59:25.963Z,3.90
2019-06-20T03:01:56.362Z,4.40
2019-06-20T03:04:26.689Z,3.90
2019-06-20T03:06:57.071Z,3.63
2019-06-20T03:09:27.711Z,4.30
2019-06-20T03:11:58.217Z,3.80
2019-06-20T03:14:44.295Z,4.10
2019-06-20T03:17:00.454Z,3.93
2019-06-20T03:19:30.789Z,4.10
2019-06-20T03:22:03.462Z,3.70
2019-06-20T03:24:35.205Z,3.93
2019-06-20T03:27:05.653Z,4.07
2019-06-20T03:29:36.046Z,4.10
2019-06-20T03:32:06.346Z,4.30
2019-06-20T03:34:38.276Z,4.70
2019-06-20T03:37:09.058Z,4.30
2019-06-20T03:39:40.564Z,4.67
2019-06-20T03:42:10.972Z,4.60
2019-06-20T03:44:41.273Z,4.47
2019-06-20T03:47:11.556Z,4.20
2019-06-20T03:49:41.755Z,4.10
2019-06-20T03:52:27.839Z,4.60
2019-06-20T03:54:58.057Z,4.40
2019-06-20T03:57:28.337Z,4.27
2019-06-20T03:59:58.674Z,4.30
2019-06-20T04:02:28.906Z,4.30
2019-06-20T04:04:59.413Z,4.47
2019-06-20T04:07:29.668Z,3.70
2019-06-20T04:09:59.962Z,3.90
2019-06-20T04:12:30.233Z,4.07
2019-06-20T04:15:00.505Z,3.80
2019-06-20T04:17:30.874Z,3.70
2019-06-20T04:20:01.150Z,3.63
2019-06-20T04:22:31.477Z,3.40
2019-06-20T04:25:01.799Z,3.00
2019-06-20T04:27:32.220Z,3.50
2019-06-20T04:30:02.492Z,3.07
2019-06-20T04:32:35.066Z,3.27
2019-06-20T04:35:07.072Z,3.43
2019-06-20T04:37:37.291Z,3.00
2019-06-20T04:40:07.590Z,3.20
2019-06-20T04:42:37.890Z,3.43
2019-06-20T04:45:17.581Z,2.83
2019-06-20T04:47:47.815Z,3.13
2019-06-20T04:50:18.096Z,3.27
2019-06-20T04:52:48.373Z,3.20
2019-06-20T04:55:18.640Z,3.17
2019-06-20T04:57:49.156Z,3.03
2019-06-20T05:00:19.467Z,2.97
2019-06-20T05:02:49.726Z,2.47
2019-06-20T05:05:20.029Z,2.67
2019-06-20T05:07:50.426Z,2.60
2019-06-20T05:10:21.773Z,2.60
2019-06-20T05:12:56.108Z,2.63
2019-06-20T05:15:26.759Z,2.60
2019-06-20T05:17:57.006Z,2.30
2019-06-20T05:20:27.323Z,2.50
2019-06-20T05:22:57.599Z,2.37
2019-06-20T05:25:28.171Z,2.57
2019-06-20T05:27:58.438Z,2.70
2019-06-20T05:30:28.874Z,2.70
2019-06-20T05:33:09.302Z,2.67
2019-06-20T05:35:39.559Z,2.40
2019-06-20T05:38:09.866Z,2.50
2019-06-20T05:40:40.119Z,2.60
2019-06-20T05:43:10.390Z,2.40
2019-06-20T05:45:44.469Z,2.80
2019-06-20T05:48:14.086Z,2.47
2019-06-20T05:50:45.524Z,2.40
2019-06-20T05:53:15.818Z,2.50
2019-06-20T05:55:46.112Z,2.30
2019-06-20T05:58:17.671Z,2.57
2019-06-20T06:00:47.871Z,2.60
2019-06-20T06:03:18.974Z,2.40
2019-06-20T06:05:49.205Z,2.47
2019-06-20T06:08:19.518Z,2.53
2019-06-20T06:10:49.763Z,2.43
2019-06-20T06:13:20.639Z,2.50
2019-06-20T06:15:50.991Z,2.20
2019-06-20T06:18:21.275Z,2.40
2019-06-20T06:20:51.585Z,2.50
2019-06-20T06:23:21.849Z,2.10
2019-06-20T06:25:58.113Z,2.10
2019-06-20T06:28:28.400Z,2.07
2019-06-20T06:30:58.722Z,2.47
2019-06-20T06:33:28.917Z,2.33
2019-06-20T06:35:59.206Z,2.40
2019-06-20T06:38:29.431Z,2.30
2019-06-20T06:41:01.026Z,2.27
2019-06-20T06:43:32.321Z,2.50
2019-06-20T06:46:03.757Z,2.10
2019-06-20T06:48:33.983Z,2.33
2019-06-20T06:51:04.266Z,2.37
2019-06-20T06:53:34.697Z,2.77
2019-06-20T06:56:05.425Z,2.20
2019-06-20T06:58:35.711Z,2.30
2019-06-20T07:01:09.986Z,2.20
2019-06-20T07:03:37.926Z,2.10
2019-06-20T07:06:08.143Z,2.20
2019-06-20T07:08:41.902Z,2.27
2019-06-20T07:11:12.061Z,2.73
2019-06-20T07:13:42.377Z,2.40
2019-06-20T07:16:12.617Z,2.30
2019-06-20T07:18:42.836Z,2.70
2019-06-20T07:21:13.112Z,2.43
2019-06-20T07:23:43.381Z,2.47
2019-06-20T07:26:14.824Z,2.40
2019-06-20T07:28:45.101Z,2.30
2019-06-20T07:31:15.347Z,2.40
2019-06-20T07:33:45.623Z,2.40
2019-06-20T07:36:25.637Z,2.10
2019-06-20T07:38:55.963Z,2.60
2019-06-20T07:41:26.249Z,2.17
2019-06-20T07:43:56.708Z,2.23
2019-06-20T07:46:26.915Z,2.33
2019-06-20T07:48:57.189Z,2.27
2019-06-20T07:51:29.826Z,2.30
2019-06-20T07:54:00.442Z,2.23
2019-06-20T07:56:30.697Z,2.07
2019-06-20T07:59:00.908Z,2.40
2019-06-20T08:01:31.157Z,2.37
2019-06-20T08:04:05.100Z,2.33
2019-06-20T08:06:35.374Z,2.20
2019-06-20T08:09:08.081Z,2.37
2019-06-20T08:11:38.309Z,2.37
2019-06-20T08:14:08.520Z,2.67
2019-06-20T08:16:38.750Z,2.70
2019-06-20T08:19:16.451Z,2.70
2019-06-20T08:21:46.783Z,2.80
2019-06-20T08:24:17.006Z,3.73
2019-06-20T08:26:47.257Z,3.00
2019-06-20T08:29:21.092Z,2.80
2019-06-20T08:31:49.842Z,2.73
2019-06-20T08:34:21.036Z,3.33
2019-06-20T08:36:51.335Z,3.57
2019-06-20T08:39:21.619Z,3.13
2019-06-20T08:41:51.845Z,3.13
2019-06-20T08:44:22.093Z,3.20
2019-06-20T08:47:01.134Z,3.23
2019-06-20T08:49:31.963Z,3.67
2019-06-20T08:52:03.434Z,3.30
2019-06-20T08:54:33.916Z,2.80
2019-06-20T08:57:06.029Z,2.80
2019-06-20T08:59:41.437Z,2.60
2019-06-20T09:02:11.689Z,2.40
2019-06-20T09:04:42.062Z,2.40
2019-06-20T09:07:12.276Z,2.70
2019-06-20T09:09:42.571Z,2.43
2019-06-20T09:12:12.849Z,2.53
2019-06-20T09:14:46.908Z,2.63
2019-06-20T09:17:17.141Z,2.30
2019-06-20T09:19:47.421Z,2.40
2019-06-20T09:22:17.660Z,2.80
2019-06-20T09:24:47.926Z,2.40
2019-06-20T09:30:25.860Z,2.50
2019-06-20T09:32:56.253Z,2.17
2019-06-20T09:35:26.617Z,2.30
2019-06-20T09:37:57.157Z,2.10
2019-06-20T09:40:28.891Z,2.20
2019-06-20T09:42:59.258Z,2.03
2019-06-20T09:45:29.894Z,2.50
2019-06-20T09:48:00.130Z,2.00
2019-06-20T09:50:31.438Z,2.30
2019-06-20T09:53:01.619Z,2.33
2019-06-20T09:55:53.724Z,2.27
2019-06-20T09:58:24.020Z,2.27
2019-06-20T10:00:55.104Z,2.00
2019-06-20T10:03:25.599Z,1.70
2019-06-20T10:05:56.665Z,1.90
2019-06-20T10:08:27.373Z,2.00
2019-06-20T10:10:57.671Z,2.00
2019-06-20T10:13:27.934Z,1.77
2019-06-20T10:15:58.286Z,2.00
2019-06-20T10:18:28.510Z,2.10
2019-06-20T10:20:58.853Z,1.73
2019-06-20T10:23:29.145Z,1.70
2019-06-20T10:25:59.404Z,1.70
2019-06-20T10:28:29.687Z,1.90
2019-06-20T10:30:59.920Z,1.60
2019-06-20T10:33:30.250Z,1.60
2019-06-20T10:36:00.940Z,1.80
2019-06-20T10:38:31.260Z,1.70
2019-06-20T10:41:01.559Z,1.80
2019-06-20T10:43:31.914Z,1.90
2019-06-20T10:46:02.224Z,1.70
2019-06-20T10:48:32.478Z,1.80
2019-06-20T10:51:22.154Z,1.93
2019-06-20T10:53:53.391Z,1.80
2019-06-20T10:56:23.786Z,2.00
2019-06-20T10:58:54.137Z,1.80
2019-06-20T11:01:24.374Z,1.70
2019-06-20T11:03:54.655Z,1.70
2019-06-20T11:06:25.015Z,1.63
2019-06-20T11:08:55.232Z,1.90
2019-06-20T11:11:25.586Z,1.73
2019-06-20T11:13:55.896Z,1.80
2019-06-20T11:16:26.165Z,1.70
2019-06-20T11:18:58.843Z,1.80
2019-06-20T11:21:29.088Z,1.60
2019-06-20T11:23:59.308Z,1.80
2019-06-20T11:26:29.487Z,1.73
2019-06-20T11:28:59.772Z,1.87
2019-06-20T11:31:47.794Z,1.70
2019-06-20T11:34:17.728Z,1.90
2019-06-20T11:36:48.068Z,1.57
2019-06-20T11:39:18.344Z,1.80
2019-06-20T11:41:48.600Z,2.03
2019-06-20T11:44:18.871Z,1.77
2019-06-20T11:47:01.435Z,1.90
2019-06-20T11:49:31.804Z,1.60
2019-06-20T11:52:02.115Z,1.63
2019-06-20T11:54:33.312Z,1.90
2019-06-20T11:57:04.266Z,1.87
2019-06-20T11:59:35.005Z,1.77
2019-06-20T12:02:05.579Z,2.10
2019-06-20T12:04:35.851Z,1.60
2019-06-20T12:07:06.037Z,1.80
2019-06-20T12:09:36.619Z,2.10
2019-06-20T12:12:06.861Z,1.90
2019-06-20T12:14:39.713Z,1.90
2019-06-20T12:17:10.349Z,1.80
2019-06-20T12:19:40.872Z,2.00
2019-06-20T12:22:12.566Z,1.90
2019-06-20T12:24:43.011Z,2.00
2019-06-20T12:27:13.294Z,2.00
2019-06-20T12:29:50.784Z,1.70
2019-06-20T12:32:22.081Z,1.80
2019-06-20T12:34:52.438Z,1.97
2019-06-20T12:37:22.728Z,1.90
2019-06-20T12:39:53.030Z,1.80
2019-06-20T12:42:24.698Z,1.83
2019-06-20T12:44:55.132Z,1.70
2019-06-20T12:47:25.480Z,1.90
2019-06-20T12:49:55.741Z,1.90
2019-06-20T12:52:25.985Z,2.07
2019-06-20T12:54:56.362Z,2.10
2019-06-20T12:57:28.061Z,1.80
2019-06-20T12:59:58.407Z,1.73
2019-06-20T13:02:28.982Z,2.27
2019-06-20T13:04:59.245Z,1.80
2019-06-20T13:07:29.582Z,1.87
2019-06-20T13:10:00.160Z,1.70
2019-06-20T13:12:30.429Z,1.73
2019-06-20T13:15:00.767Z,1.63
2019-06-20T13:17:31.384Z,1.70
2019-06-20T13:20:01.624Z,1.67
2019-06-20T13:22:31.970Z,1.90
2019-06-20T13:25:02.210Z,1.80
2019-06-20T13:27:32.461Z,1.80
2019-06-20T13:30:21.099Z,1.90
2019-06-20T13:32:51.516Z,1.60
2019-06-20T13:35:21.731Z,1.60
2019-06-20T13:37:52.003Z,1.57
2019-06-20T13:40:22.310Z,1.90
2019-06-20T13:42:54.685Z,1.63
2019-06-20T13:45:27.419Z,1.83
2019-06-20T13:47:57.928Z,1.60
2019-06-20T13:50:29.806Z,1.40
2019-06-20T13:53:00.076Z,1.60
2019-06-20T13:55:30.294Z,1.40
2019-06-20T13:58:05.046Z,1.40
2019-06-20T14:00:35.286Z,1.40
2019-06-20T14:03:05.554Z,1.73
2019-06-20T14:05:35.778Z,1.40
2019-06-20T14:08:06.064Z,1.50
2019-06-20T14:10:36.704Z,1.63
2019-06-20T14:13:18.753Z,1.40
2019-06-20T14:15:38.901Z,1.50
2019-06-20T14:18:09.150Z,1.40
2019-06-20T14:20:39.379Z,1.13
2019-06-20T14:23:10.942Z,1.40
2019-06-20T14:25:42.440Z,1.20
2019-06-20T14:28:13.235Z,1.40
2019-06-20T14:30:45.014Z,1.50
2019-06-20T14:33:15.530Z,1.33
2019-06-20T14:35:47.398Z,1.30
2019-06-20T14:38:18.166Z,1.30
2019-06-20T14:40:49.888Z,1.53
2019-06-20T14:43:20.367Z,1.40
2019-06-20T14:45:50.825Z,1.30
2019-06-20T14:48:21.126Z,1.27
2019-06-20T14:51:01.563Z,1.13
2019-06-20T14:53:31.873Z,1.30
2019-06-20T14:56:02.125Z,1.50
2019-06-20T14:58:33.426Z,1.17
2019-06-20T15:01:03.739Z,1.50
2019-06-20T15:03:33.999Z,1.27
2019-06-20T15:06:04.568Z,1.40
2019-06-20T15:08:34.802Z,1.70
2019-06-20T15:11:05.080Z,1.60
2019-06-20T15:13:35.285Z,1.50
2019-06-20T15:16:09.874Z,1.40
2019-06-20T15:18:40.502Z,1.40
2019-06-20T15:21:10.748Z,1.13
2019-06-20T15:23:41.149Z,1.50
2019-06-20T15:26:11.505Z,1.30
2019-06-20T15:28:41.755Z,1.60
2019-06-20T15:31:11.964Z,1.10
2019-06-20T15:33:43.702Z,1.30
2019-06-20T15:36:14.131Z,1.20
2019-06-20T15:38:44.411Z,1.10
2019-06-20T15:41:14.729Z,1.40
2019-06-20T15:43:44.930Z,1.40
2019-06-20T15:46:19.243Z,1.10
2019-06-20T15:48:49.538Z,1.23
2019-06-20T15:51:20.180Z,1.23
2019-06-20T15:53:50.436Z,0.90
2019-06-20T15:56:20.796Z,1.10
2019-06-20T15:58:52.111Z,1.60
2019-06-20T16:01:24.738Z,1.03
2019-06-20T16:03:55.057Z,1.27
2019-06-20T16:06:27.704Z,1.20
2019-06-20T16:08:58.005Z,1.20
2019-06-20T16:11:28.292Z,1.57
2019-06-20T16:13:59.964Z,1.30
2019-06-20T16:16:31.227Z,1.30
2019-06-20T16:19:01.498Z,1.50
2019-06-20T16:21:32.992Z,1.20
2019-06-20T16:24:03.245Z,1.40
2019-06-20T16:26:33.520Z,1.40
2019-06-20T16:29:03.869Z,1.53
2019-06-20T16:31:34.175Z,1.17
2019-06-20T16:34:05.742Z,1.17
2019-06-20T16:37:09.008Z,1.27
2019-06-20T16:39:28.259Z,1.23
2019-06-20T16:41:58.493Z,1.47
2019-06-20T16:44:28.699Z,1.40
2019-06-20T16:46:59.274Z,1.23
2019-06-20T16:49:29.534Z,1.40
2019-06-20T16:51:59.798Z,1.40
2019-06-20T16:54:30.043Z,1.40
2019-06-20T16:57:00.318Z,1.77
2019-06-20T16:59:30.563Z,1.30
2019-06-20T17:02:10.223Z,1.60
2019-06-20T17:04:40.490Z,1.53
2019-06-20T17:07:10.751Z,1.53
2019-06-20T17:09:41.028Z,1.60
2019-06-20T17:12:11.347Z,1.40
2019-06-20T17:14:47.922Z,1.53
2019-06-20T17:17:18.168Z,1.50
2019-06-20T17:19:48.941Z,1.50
2019-06-20T17:22:19.174Z,1.53
2019-06-20T17:24:49.410Z,1.30
2019-06-20T17:27:20.337Z,1.33
2019-06-20T17:29:50.618Z,1.30
2019-06-20T17:32:20.882Z,1.73
2019-06-20T17:34:51.148Z,1.70
2019-06-20T17:37:23.882Z,1.43
2019-06-20T17:39:54.504Z,1.83
2019-06-20T17:42:24.764Z,1.70
2019-06-20T17:44:55.026Z,1.40
2019-06-20T17:47:25.278Z,1.30
2019-06-20T17:49:55.644Z,1.70
2019-06-20T17:52:25.968Z,1.27
2019-06-20T17:55:03.693Z,1.43
2019-06-20T17:57:33.910Z,1.70
2019-06-20T18:00:04.133Z,1.80
2019-06-20T18:02:34.551Z,1.67
2019-06-20T18:05:05.984Z,1.73
2019-06-20T18:07:53.841Z,1.90
2019-06-20T18:10:24.205Z,1.73
2019-06-20T18:12:54.478Z,1.80
2019-06-20T18:15:25.287Z,1.90
2019-06-20T18:17:55.536Z,1.80
2019-06-20T18:20:27.014Z,1.60
2019-06-20T18:22:57.363Z,2.07
2019-06-20T18:25:27.621Z,1.90
2019-06-20T18:27:57.934Z,1.67
2019-06-20T18:30:36.530Z,1.77
2019-06-20T18:33:06.807Z,1.53
2019-06-20T18:35:39.579Z,1.43
2019-06-20T18:38:09.896Z,1.50
2019-06-20T18:40:40.473Z,1.40
2019-06-20T18:43:11.058Z,1.60
2019-06-20T18:45:41.450Z,1.60
2019-06-20T18:48:13.326Z,1.57
2019-06-20T18:50:43.991Z,1.80
2019-06-20T18:53:17.344Z,1.60
2019-06-20T18:55:49.140Z,1.50
2019-06-20T18:58:19.706Z,1.50
2019-06-20T19:00:50.175Z,1.70
2019-06-20T19:03:21.466Z,1.60
2019-06-20T19:05:53.106Z,1.63
2019-06-20T19:08:23.389Z,1.60
2019-06-20T19:10:54.870Z,1.70
2019-06-20T19:13:25.313Z,1.60
2019-06-20T19:15:55.976Z,1.60
2019-06-20T19:18:26.508Z,1.87
2019-06-20T19:20:56.987Z,1.80
2019-06-20T19:23:27.378Z,1.80
2019-06-20T19:25:57.840Z,1.60
2019-06-20T19:28:28.442Z,1.40
2019-06-20T19:30:59.035Z,1.40
2019-06-20T19:33:29.315Z,1.70
2019-06-20T19:35:59.773Z,1.80
2019-06-20T19:38:30.754Z,1.70
2019-06-20T19:41:01.299Z,1.47
2019-06-20T19:43:35.728Z,1.80
2019-06-20T19:46:06.060Z,1.60
2019-06-20T19:48:36.961Z,1.67
2019-06-20T19:51:09.377Z,1.53
2019-06-20T19:53:39.704Z,1.30
2019-06-20T19:56:10.117Z,1.63
2019-06-20T19:58:41.042Z,1.37
2019-06-20T20:01:11.676Z,1.40
2019-06-20T20:03:41.935Z,1.80
2019-06-20T20:06:12.152Z,1.70
2019-06-20T20:08:42.404Z,1.80
2019-06-20T20:11:12.930Z,1.57
2019-06-20T20:13:43.296Z,1.67
2019-06-20T20:16:13.577Z,1.80
2019-06-20T20:18:43.794Z,2.00
2019-06-20T20:21:14.099Z,2.03
2019-06-20T20:23:44.317Z,1.67
2019-06-20T20:26:15.930Z,2.00
2019-06-20T20:28:46.573Z,1.70
2019-06-20T20:31:16.958Z,1.90
2019-06-20T20:33:47.222Z,1.90
2019-06-20T20:36:24.860Z,1.67
2019-06-20T20:38:49.406Z,2.00
2019-06-20T20:41:19.688Z,2.00
2019-06-20T20:43:49.928Z,1.87
2019-06-20T20:46:20.127Z,1.80
2019-06-20T20:48:50.391Z,1.90
2019-06-20T20:51:31.997Z,1.93
2019-06-20T20:54:02.281Z,2.10
2019-06-20T20:56:33.777Z,1.97
2019-06-20T20:59:04.047Z,1.83
2019-06-20T21:01:35.590Z,1.60
2019-06-20T21:04:06.154Z,1.90
2019-06-20T21:06:38.729Z,1.97
2019-06-20T21:09:09.334Z,1.70
2019-06-20T21:11:40.586Z,2.00
2019-06-20T21:14:10.803Z,2.10
2019-06-20T21:16:41.126Z,1.77
2019-06-20T21:19:11.677Z,1.80
2019-06-20T21:21:41.948Z,2.10
2019-06-20T21:24:12.185Z,2.07
2019-06-20T21:26:49.399Z,2.03
2019-06-20T21:29:14.340Z,1.70
2019-06-20T21:31:45.670Z,2.10
2019-06-20T21:34:17.000Z,2.23
2019-06-20T21:36:47.282Z,1.77
2019-06-20T21:39:17.652Z,1.87
2019-06-20T21:41:47.941Z,2.10
2019-06-20T21:44:18.195Z,1.80
2019-06-20T21:46:48.894Z,1.80
2019-06-20T21:49:19.082Z,1.83
2019-06-20T21:51:49.351Z,1.90
2019-06-20T21:54:19.578Z,2.00
2019-06-20T21:56:49.935Z,1.70
2019-06-20T21:59:22.685Z,2.10
2019-06-20T22:01:52.943Z,1.80
2019-06-20T22:04:23.247Z,1.70
2019-06-20T22:06:53.578Z,1.80
2019-06-20T22:09:24.718Z,1.60
2019-06-20T22:11:55.035Z,2.00
2019-06-20T22:14:48.676Z,1.83
2019-06-20T22:17:18.931Z,2.30
2019-06-20T22:19:49.263Z,1.70
2019-06-20T22:22:19.470Z,2.10
2019-06-20T22:24:49.764Z,2.00
2019-06-20T22:27:20.352Z,2.00
2019-06-20T22:29:50.999Z,1.97
2019-06-20T22:32:21.260Z,2.00
2019-06-20T22:34:51.549Z,1.60
2019-06-20T22:37:21.769Z,2.20
2019-06-20T22:39:52.004Z,1.90
2019-06-20T22:42:22.615Z,2.30
2019-06-20T22:44:53.961Z,2.00
2019-06-20T22:47:24.271Z,1.77
2019-06-20T22:49:54.599Z,1.90
2019-06-20T22:52:24.962Z,2.20
2019-06-20T22:54:55.180Z,1.90
2019-06-20T22:57:31.808Z,2.30
2019-06-20T23:00:02.087Z,1.97
2019-06-20T23:02:32.438Z,2.20
2019-06-20T23:05:02.635Z,2.20
2019-06-20T23:07:32.914Z,1.70
2019-06-20T23:10:11.437Z,2.10
2019-06-20T23:12:41.855Z,1.90
2019-06-20T23:15:12.193Z,2.10
2019-06-20T23:17:42.450Z,2.13
2019-06-20T23:20:12.753Z,1.87
2019-06-20T23:22:43.038Z,2.07
2019-06-20T23:25:13.555Z,2.00
2019-06-20T23:27:43.785Z,2.10
2019-06-20T23:30:15.610Z,2.03
2019-06-20T23:32:45.830Z,2.00
2019-06-20T23:35:16.118Z,2.43
2019-06-20T23:37:46.648Z,2.37
2019-06-20T23:40:16.884Z,1.93
2019-06-20T23:42:47.100Z,2.07
2019-06-20T23:45:17.898Z,1.87
2019-06-20T23:47:48.123Z,2.30
2019-06-20T23:50:18.748Z,2.23
2019-06-20T23:52:56.459Z,2.00
2019-06-20T23:55:26.720Z,2.20
2019-06-20T23:57:56.963Z,2.07
